createdAt,value
2022-09-17T04:17:03.957Z,99742.38
2022-09-17T04:19:30.466Z,99736.59
2022-09-17T04:21:57.004Z,99732.38
2022-09-17T04:24:23.422Z,99731.53
2022-09-17T04:26:49.919Z,99732.09
2022-09-17T04:29:16.360Z,99738.75
2022-09-17T04:31:42.878Z,99743.53
2022-09-17T04:34:09.368Z,99753.28
2022-09-17T04:36:35.844Z,99750.81
2022-09-17T04:39:02.347Z,99750.09
2022-09-17T04:41:28.795Z,99760.03
2022-09-17T04:43:55.283Z,99753.03
2022-09-17T04:46:21.755Z,99750.00
2022-09-17T04:48:48.241Z,99761.34
2022-09-17T04:51:14.779Z,99760.28
2022-09-17T04:53:41.258Z,99761.72
2022-09-17T04:56:07.680Z,99757.09
2022-09-17T04:58:34.202Z,99763.25
2022-09-17T05:01:00.717Z,99769.84
2022-09-17T05:03:27.200Z,99765.69
2022-09-17T05:05:53.625Z,99770.19
2022-09-17T05:08:22.825Z,99775.09
2022-09-17T05:10:51.458Z,99773.34
2022-09-17T05:13:18.855Z,99773.53
2022-09-17T05:15:45.326Z,99778.06
2022-09-17T05:18:11.790Z,99759.34
2022-09-17T05:20:38.647Z,99765.97
2022-09-17T05:23:05.304Z,99763.63
2022-09-17T05:25:32.404Z,99762.84
2022-09-17T05:28:01.225Z,99769.28
2022-09-17T05:30:27.661Z,99769.03
2022-09-17T05:33:02.029Z,99766.41
2022-09-17T05:35:29.826Z,99778.75
2022-09-17T05:38:00.677Z,99778.75
2022-09-17T05:40:28.120Z,99767.38
2022-09-17T05:43:02.467Z,99779.38
2022-09-17T05:45:30.239Z,99772.09
2022-09-17T05:47:58.367Z,99783.59
2022-09-17T05:50:26.077Z,99785.94
2022-09-17T05:52:53.716Z,99790.63
2022-09-17T05:55:22.257Z,99794.28
2022-09-17T05:57:49.867Z,99796.50
2022-09-17T06:00:16.577Z,99796.22
2022-09-17T06:02:43.177Z,99797.88
2022-09-17T06:05:10.260Z,99802.22
2022-09-17T06:07:37.919Z,99802.69
2022-09-17T06:10:06.611Z,99808.25
2022-09-17T06:12:35.456Z,99803.66
2022-09-17T06:15:03.656Z,99802.19
2022-09-17T06:17:34.866Z,99793.28
2022-09-17T06:20:02.379Z,99808.63
2022-09-17T06:22:30.053Z,99800.00
2022-09-17T06:24:56.653Z,99806.25
2022-09-17T06:27:23.112Z,99806.34
2022-09-17T06:29:49.517Z,99805.13
2022-09-17T06:32:16.994Z,99808.53
2022-09-17T06:34:43.905Z,99811.13
2022-09-17T06:37:10.455Z,99810.00
2022-09-17T06:39:37.158Z,99815.56
2022-09-17T06:42:03.824Z,99817.09
2022-09-17T06:44:30.463Z,99808.22
2022-09-17T06:46:56.970Z,99815.16
2022-09-17T06:49:24.137Z,99808.09
2022-09-17T06:51:50.714Z,99818.38
2022-09-17T06:54:17.322Z,99816.47
2022-09-17T06:56:46.895Z,99816.66
2022-09-17T06:59:13.872Z,99822.78
2022-09-17T07:01:40.475Z,99825.53
2022-09-17T07:04:06.945Z,99829.50
2022-09-17T07:06:33.424Z,99834.41
2022-09-17T07:08:59.973Z,99829.53
2022-09-17T07:11:26.423Z,99843.69
2022-09-17T07:13:52.954Z,99835.41
2022-09-17T07:16:19.727Z,99839.69
2022-09-17T07:18:46.373Z,99843.25
2022-09-17T07:21:12.910Z,99840.94
2022-09-17T07:23:39.438Z,99846.19
2022-09-17T07:26:12.122Z,99840.19
2022-09-17T07:28:40.084Z,99831.06
2022-09-17T07:31:10.251Z,99834.50
2022-09-17T07:33:40.474Z,99832.38
2022-09-17T07:36:11.139Z,99841.63
2022-09-17T07:38:38.787Z,99837.16
2022-09-17T07:41:14.650Z,99834.22
2022-09-17T07:43:42.216Z,99840.94
2022-09-17T07:46:14.477Z,99830.13
2022-09-17T07:48:40.997Z,99841.84
2022-09-17T07:51:07.547Z,99842.16
2022-09-17T07:53:34.262Z,99841.84
2022-09-17T07:56:01.115Z,99837.84
2022-09-17T07:58:33.555Z,99841.31
2022-09-17T08:01:08.572Z,99834.75
2022-09-17T08:03:36.243Z,99842.66
2022-09-17T08:06:06.981Z,99834.94
2022-09-17T08:08:35.833Z,99853.94
2022-09-17T08:11:04.424Z,99848.19
2022-09-17T08:13:30.945Z,99843.41
2022-09-17T08:16:02.235Z,99856.53
2022-09-17T08:18:29.804Z,99851.66
2022-09-17T08:20:58.322Z,99850.69
2022-09-17T08:23:25.794Z,99852.00
2022-09-17T08:25:53.873Z,99856.28
2022-09-17T08:28:20.658Z,99853.44
2022-09-17T08:30:48.452Z,99857.09
2022-09-17T08:33:15.206Z,99859.63
2022-09-17T08:35:41.710Z,99857.34
2022-09-17T08:38:08.379Z,99861.66
2022-09-17T08:40:45.512Z,99856.53
2022-09-17T08:43:18.346Z,99852.47
2022-09-17T08:45:45.059Z,99849.31
2022-09-17T08:48:14.429Z,99840.69
2022-09-17T08:50:42.678Z,99836.97
2022-09-17T08:53:22.413Z,99840.94
2022-09-17T08:56:13.293Z,99842.91
2022-09-17T08:59:02.215Z,99838.22
2022-09-17T09:01:34.619Z,99841.69
2022-09-17T09:04:07.676Z,99846.47
2022-09-17T09:06:37.996Z,99851.94
2022-09-17T09:09:17.108Z,99844.28
2022-09-17T09:11:46.915Z,99844.09
2022-09-17T09:14:18.488Z,99848.56
2022-09-17T09:16:45.892Z,99838.66
2022-09-17T09:19:27.122Z,99831.25
2022-09-17T09:22:21.678Z,99830.97
2022-09-17T09:25:11.857Z,99829.38
2022-09-17T09:28:10.701Z,99830.91
2022-09-17T09:30:56.911Z,99862.69
2022-09-17T09:33:37.590Z,99862.75
2022-09-17T09:36:07.978Z,99868.91
2022-09-17T09:38:48.824Z,99869.03
2022-09-17T09:41:27.294Z,99864.13
2022-09-17T09:44:09.222Z,99868.34
2022-09-17T09:47:06.302Z,99871.72
2022-09-17T09:49:53.555Z,99869.19
2022-09-17T09:52:32.759Z,99874.88
2022-09-17T09:55:26.764Z,99863.69
2022-09-17T09:58:17.821Z,99857.03
2022-09-17T10:00:44.450Z,99874.78
2022-09-17T10:03:10.918Z,99871.13
2022-09-17T10:05:37.395Z,99879.69
2022-09-17T10:08:14.730Z,99877.59
2022-09-17T10:11:02.691Z,99881.41
2022-09-17T10:13:39.103Z,99882.75
2022-09-17T10:16:20.684Z,99890.41
2022-09-17T10:18:48.877Z,99875.84
2022-09-17T10:21:22.511Z,99880.06
2022-09-17T10:23:50.483Z,99886.91
2022-09-17T10:26:36.950Z,99883.59
2022-09-17T10:29:28.125Z,99890.16
2022-09-17T10:31:57.185Z,99885.00
2022-09-17T10:34:27.569Z,99872.47
2022-09-17T10:36:56.570Z,99876.00
2022-09-17T10:39:29.187Z,99864.97
2022-09-17T10:42:13.244Z,99861.34
2022-09-17T10:44:54.491Z,99863.34
2022-09-17T10:47:30.813Z,99856.63
2022-09-17T10:50:03.932Z,99847.78
2022-09-17T10:52:42.119Z,99861.44
2022-09-17T10:55:11.512Z,99849.09
2022-09-17T10:58:09.978Z,99849.53
2022-09-17T11:00:45.502Z,99848.09
2022-09-17T11:03:49.601Z,99848.38
2022-09-17T11:07:06.530Z,99861.75
2022-09-17T11:09:54.128Z,99851.66
2022-09-17T11:12:40.696Z,99842.47
2022-09-17T11:15:17.137Z,99850.44
2022-09-17T11:18:10.783Z,99847.44
2022-09-17T11:20:56.036Z,99837.44
2022-09-17T11:23:42.330Z,99840.56
2022-09-17T11:26:30.059Z,99832.31
2022-09-17T11:29:21.089Z,99846.41
2022-09-17T11:32:05.331Z,99853.63
2022-09-17T11:34:45.037Z,99857.09
2022-09-17T11:37:11.406Z,99875.75
2022-09-17T11:39:57.262Z,99870.47
2022-09-17T11:42:46.430Z,99858.63
2022-09-17T11:45:25.763Z,99855.19
2022-09-17T11:47:58.745Z,99852.47
2022-09-17T11:50:33.166Z,99842.28
2022-09-17T11:56:25.558Z,99842.16
2022-09-17T11:59:12.234Z,99838.78
2022-09-17T12:01:48.877Z,99830.81
2022-09-17T12:04:34.243Z,99824.69
2022-09-17T12:07:18.928Z,99824.69
2022-09-17T12:09:53.760Z,99829.97
2022-09-17T12:12:47.592Z,99824.66
2022-09-17T12:15:19.973Z,99828.75
2022-09-17T12:18:27.625Z,99827.28
2022-09-17T12:20:52.341Z,99811.56
2022-09-17T12:23:38.625Z,99824.03
2022-09-17T12:26:14.882Z,99820.06
2022-09-17T12:29:06.959Z,99809.56
2022-09-17T12:31:53.311Z,99809.78
2022-09-17T12:34:29.997Z,99796.75
2022-09-17T12:37:08.434Z,99790.97
2022-09-17T12:39:45.526Z,99793.00
2022-09-17T12:42:28.791Z,99795.69
2022-09-17T12:45:08.065Z,99793.25
2022-09-17T12:48:09.977Z,99790.47
2022-09-17T12:51:03.136Z,99776.38
2022-09-17T12:53:36.973Z,99794.59
2022-09-17T12:56:31.621Z,99789.88
2022-09-17T12:59:08.102Z,99781.00
2022-09-17T13:02:15.489Z,99790.22
2022-09-17T13:05:09.889Z,99783.78
2022-09-17T13:08:14.000Z,99769.16
2022-09-17T13:10:43.523Z,99773.94
2022-09-17T13:13:34.787Z,99760.59
2022-09-17T13:16:13.351Z,99780.94
2022-09-17T13:19:16.661Z,99771.47
2022-09-17T13:21:56.452Z,99755.50
2022-09-17T13:24:27.013Z,99751.03
2022-09-17T13:26:54.858Z,99753.69
2022-09-17T13:29:46.446Z,99746.69
2022-09-17T13:32:35.005Z,99762.50
2022-09-17T13:35:14.431Z,99756.16
2022-09-17T13:37:44.251Z,99756.53
2022-09-17T13:40:23.010Z,99772.72
2022-09-17T13:42:55.374Z,99756.72
2022-09-17T13:45:23.604Z,99753.09
2022-09-17T13:48:02.948Z,99810.44
2022-09-17T13:50:35.255Z,99769.75
2022-09-17T13:53:16.916Z,99754.63
2022-09-17T13:55:52.307Z,99772.38
2022-09-17T13:58:18.782Z,99751.19
2022-09-17T14:00:51.319Z,99760.00
2022-09-17T14:03:41.715Z,99744.06
2022-09-17T14:06:08.524Z,99749.06
2022-09-17T14:08:43.984Z,99755.00
2022-09-17T14:11:22.636Z,99755.06
2022-09-17T14:13:57.979Z,99752.75
2022-09-17T14:16:42.618Z,99762.25
2022-09-17T14:19:15.302Z,99764.41
2022-09-17T14:21:57.184Z,99774.22
2022-09-17T14:24:26.745Z,99788.09
2022-09-17T14:27:14.588Z,99795.78
2022-09-17T14:29:59.898Z,99800.69
2022-09-17T14:33:02.549Z,99816.38
2022-09-17T14:35:41.593Z,99821.72
2022-09-17T14:38:10.232Z,99826.06
2022-09-17T14:40:45.000Z,99816.91
2022-09-17T14:43:20.481Z,99792.63
2022-09-17T14:45:51.910Z,99793.41
2022-09-17T14:48:26.009Z,99789.81
2022-09-17T14:50:52.577Z,99796.56
2022-09-17T14:53:21.019Z,99794.00
2022-09-17T14:55:50.165Z,99791.72
2022-09-17T14:58:37.717Z,99795.22
2022-09-17T15:01:04.357Z,99797.03
2022-09-17T15:03:30.772Z,99793.09
2022-09-17T15:05:57.245Z,99797.00
2022-09-17T15:08:27.862Z,99804.44
2022-09-17T15:10:58.004Z,99808.25
2022-09-17T15:13:30.300Z,99802.06
2022-09-17T15:16:12.630Z,99806.97
2022-09-17T15:19:05.730Z,99804.22
2022-09-17T15:21:40.535Z,99802.47
2022-09-17T15:24:15.996Z,99809.63
2022-09-17T15:26:45.301Z,99797.69
2022-09-17T15:29:21.627Z,99812.41
2022-09-17T15:31:48.297Z,99802.28
2022-09-17T15:34:14.989Z,99794.72
2022-09-17T15:37:05.716Z,99806.50
2022-09-17T15:39:40.160Z,99802.47
2022-09-17T15:42:18.212Z,99812.13
2022-09-17T15:44:44.929Z,99821.09
2022-09-17T15:47:37.863Z,99847.19
2022-09-17T15:50:25.523Z,99873.84
2022-09-17T15:53:12.102Z,99849.84
2022-09-17T15:55:45.865Z,99838.69
2022-09-17T15:58:29.019Z,99818.03
2022-09-17T16:01:14.398Z,99814.78
2022-09-17T16:03:40.853Z,99812.88
2022-09-17T16:06:22.497Z,99806.56
2022-09-17T16:08:50.556Z,99805.91
2022-09-17T16:11:20.745Z,99797.31
2022-09-17T16:13:48.363Z,99795.81
2022-09-17T16:16:20.940Z,99804.66
2022-09-17T16:18:48.301Z,99807.31
2022-09-17T16:21:16.353Z,99816.91
2022-09-17T16:23:43.122Z,99827.50
2022-09-17T16:26:16.976Z,99826.75
2022-09-17T16:28:44.543Z,99833.50
2022-09-17T16:31:13.558Z,99851.66
2022-09-17T16:33:40.538Z,99851.00
2022-09-17T16:36:07.544Z,99855.78
2022-09-17T16:38:34.071Z,99861.09
2022-09-17T16:41:00.559Z,99863.63
2022-09-17T16:43:27.117Z,99874.34
2022-09-17T16:46:04.062Z,99877.69
2022-09-17T16:48:31.551Z,99871.22
2022-09-17T16:50:58.366Z,99885.09
2022-09-17T16:53:24.989Z,99902.09
2022-09-17T16:55:51.561Z,99906.34
2022-09-17T16:58:18.001Z,99908.22
2022-09-17T17:00:45.003Z,99908.53
2022-09-17T17:03:13.254Z,99903.94
2022-09-17T17:05:40.287Z,99886.53
2022-09-17T17:08:07.649Z,99891.81
2022-09-17T17:10:34.952Z,99876.28
2022-09-17T17:13:01.693Z,99875.69
2022-09-17T17:15:30.343Z,99888.16
2022-09-17T17:17:57.501Z,99873.59
2022-09-17T17:20:24.046Z,99875.16
2022-09-17T17:22:52.851Z,99868.88
2022-09-17T17:25:19.622Z,99869.84
2022-09-17T17:27:46.096Z,99872.47
2022-09-17T17:30:17.226Z,99874.13
2022-09-17T17:32:48.813Z,99885.97
2022-09-17T17:35:15.678Z,99877.72
2022-09-17T17:37:42.482Z,99882.41
2022-09-17T17:40:10.173Z,99890.41
2022-09-17T17:42:39.446Z,99893.53
2022-09-17T17:45:07.489Z,99889.47
2022-09-17T17:47:34.748Z,99893.16
2022-09-17T17:50:01.196Z,99884.22
2022-09-17T17:52:28.014Z,99890.03
2022-09-17T17:54:54.540Z,99891.19
2022-09-17T17:57:21.100Z,99889.75
2022-09-17T17:59:47.705Z,99899.06
2022-09-17T18:02:14.391Z,99895.56
2022-09-17T18:04:40.980Z,99907.47
2022-09-17T18:07:07.754Z,99913.09
2022-09-17T18:09:34.351Z,99913.16
2022-09-17T18:12:00.893Z,99909.50
2022-09-17T18:14:27.462Z,99909.72
2022-09-17T18:16:54.330Z,99912.19
2022-09-17T18:19:20.844Z,99917.03
2022-09-17T18:21:47.401Z,99914.25
2022-09-17T18:24:13.984Z,99916.75
2022-09-17T18:26:40.474Z,99907.19
2022-09-17T18:29:08.148Z,99913.00
2022-09-17T18:31:35.882Z,99919.34
2022-09-17T18:34:06.155Z,99907.97
2022-09-17T18:36:35.320Z,99923.22
2022-09-17T18:41:52.731Z,99917.22
2022-09-17T18:44:21.536Z,99925.19
2022-09-17T18:46:49.500Z,99925.63
2022-09-17T18:49:16.211Z,99933.06
2022-09-17T18:51:42.796Z,99933.00
2022-09-17T18:54:15.321Z,99954.78
2022-09-17T18:56:42.240Z,99950.88
2022-09-17T18:59:09.907Z,99950.88
2022-09-17T19:01:36.534Z,99967.09
2022-09-17T19:04:03.854Z,99981.59
2022-09-17T19:06:31.930Z,99985.50
2022-09-17T19:09:03.084Z,99979.38
2022-09-17T19:11:30.182Z,99982.56
2022-09-17T19:13:56.745Z,99994.50
2022-09-17T19:16:23.347Z,99997.31
2022-09-17T19:18:50.028Z,99997.66
2022-09-17T19:21:20.468Z,100001.31
2022-09-17T19:23:49.394Z,99998.59
2022-09-17T19:26:18.826Z,100000.63
2022-09-17T19:28:45.623Z,99997.56
2022-09-17T19:31:14.638Z,100000.00
2022-09-17T19:33:41.261Z,100006.16
2022-09-17T19:36:11.337Z,100007.09
2022-09-17T19:38:38.170Z,100011.66
2022-09-17T19:41:14.172Z,100014.00
2022-09-17T19:43:41.425Z,100012.69
2022-09-17T19:46:11.532Z,100013.69
2022-09-17T19:48:46.546Z,100008.88
2022-09-17T19:51:13.886Z,100016.69
2022-09-17T19:53:40.728Z,100005.38
2022-09-17T19:56:10.618Z,100015.97
2022-09-17T19:58:37.117Z,100010.22
2022-09-17T20:01:03.745Z,100011.94
2022-09-17T20:03:30.221Z,100004.94
2022-09-17T20:06:01.582Z,100001.56
2022-09-17T20:08:28.732Z,100000.44
2022-09-17T20:10:55.903Z,100003.69
2022-09-17T20:13:23.487Z,100008.84
2022-09-17T20:15:50.026Z,100008.34
2022-09-17T20:18:19.913Z,100010.34
2022-09-17T20:20:50.108Z,100006.69
2022-09-17T20:23:16.670Z,100010.16
2022-09-17T20:25:45.785Z,100010.94
2022-09-17T20:28:12.282Z,100005.50
2022-09-17T20:30:38.780Z,100012.00
2022-09-17T20:33:05.292Z,100008.63
2022-09-17T20:35:31.915Z,100010.34
2022-09-17T20:40:44.975Z,100016.34
2022-09-17T20:43:11.557Z,100022.94
2022-09-17T20:45:38.046Z,100024.59
2022-09-17T20:48:04.856Z,100016.59
2022-09-17T20:50:31.658Z,100013.09
2022-09-17T20:52:58.434Z,100013.72
2022-09-17T20:55:25.136Z,100023.28
2022-09-17T20:57:53.762Z,100022.22
2022-09-17T21:00:21.243Z,100024.06
2022-09-17T21:02:52.425Z,100017.72
2022-09-17T21:05:19.054Z,100017.75
2022-09-17T21:07:45.822Z,100013.44
2022-09-17T21:10:13.677Z,100009.38
2022-09-17T21:12:40.646Z,100008.38
2022-09-17T21:15:07.658Z,100005.47
2022-09-17T21:17:34.753Z,100004.72
2022-09-17T21:20:01.968Z,100015.03
2022-09-17T21:22:28.500Z,100013.97
2022-09-17T21:24:55.142Z,100013.94
2022-09-17T21:27:22.180Z,100017.72
2022-09-17T21:29:48.685Z,100030.56
2022-09-17T21:32:15.221Z,100024.91
2022-09-17T21:34:41.716Z,100023.75
2022-09-17T21:37:08.149Z,100031.38
2022-09-17T21:39:35.499Z,100025.66
2022-09-17T21:42:02.005Z,100026.56
2022-09-17T21:44:28.568Z,100030.06
2022-09-17T21:46:57.617Z,100025.28
2022-09-17T21:49:25.857Z,100020.03
2022-09-17T21:51:52.513Z,100022.47
2022-09-17T21:54:19.145Z,100025.91
2022-09-17T21:56:46.571Z,100035.72
2022-09-17T21:59:14.554Z,100026.06
